Tabellarische Übersicht vom Samstag, den 24.10.2020

Oder anderes Datum wählen:






max 16,5°C 91,0% 12,6°C 1012,3hPa 17,0°C 0,0km/h (0Bft) 0,0km/h 0° (N) ∑0,1l/m² 34,000klx ∑13,4min
min 12,6°C 72,0% 10,7°C 1007,5hPa 13,0°C 0,0km/h (0Bft) 0,0km/h 0° (N) ∑0,1l/m² 0,000klx ∑13,4min
Ø 14,4°C 83,0% 11,6°C 1011,0hPa 14,0°C 0,0km/h (0Bft) 0,0km/h 0° (N) ∑0,1l/m² 9,000klx ∑13,4min
Zeit Temperatur Luftfeuchte Taupunkt Luftdruck Windchill Windböen Windgeschwindigkeit Windrichtung Regen Helligkeit Regenzeit
22:15 15,0°C 80,0% 11,6°C 1007,6hPa 15,0°C 0,0km/h (0Bft) 0,0km/h 0,0l/m² 0,000klx 0,0min
22:10 15,0°C 79,7% 11,6°C 1007,6hPa 15,0°C 0,0km/h (0Bft) 0,0km/h 0,0l/m² 0,000klx 0,0min
22:05 15,1°C 79,8% 11,6°C 1007,6hPa 15,1°C 0,0km/h (0Bft) 0,0km/h 0,0l/m² 0,000klx 0,0min
22:00 14,9°C 80,6% 11,6°C 1007,6hPa 14,9°C 0,0km/h (0Bft) 0,0km/h 0,0l/m² 0,000klx 0,0min
21:55 14,9°C 80,4% 11,5°C 1007,6hPa 14,9°C 0,0km/h (0Bft) 0,0km/h 0,0l/m² 0,000klx 0,0min
21:50 14,9°C 80,6% 11,5°C 1007,5hPa 14,9°C 0,0km/h (0Bft) 0,0km/h 0,0l/m² 0,000klx 0,0min
21:45 14,8°C 80,8% 11,5°C 1007,6hPa 14,8°C 0,0km/h (0Bft) 0,0km/h 0,0l/m² 0,000klx 0,0min
21:40 14,8°C 80,9% 11,5°C 1007,7hPa 14,8°C 0,0km/h (0Bft) 0,0km/h 0,0l/m² 0,000klx 0,0min
21:35 14,8°C 80,9% 11,5°C 1007,7hPa 14,8°C 0,0km/h (0Bft) 0,0km/h 0,0l/m² 0,000klx 0,0min
21:30 14,8°C 81,0% 11,5°C 1007,8hPa 14,8°C 0,0km/h (0Bft) 0,0km/h 0,0l/m² 0,000klx 0,0min
21:25 14,8°C 80,6% 11,5°C 1007,9hPa 14,8°C 0,0km/h (0Bft) 0,0km/h 0,0l/m² 0,000klx 0,0min
21:20 14,8°C 80,8% 11,5°C 1008,0hPa 14,8°C 0,0km/h (0Bft) 0,0km/h 0,0l/m² 0,000klx 0,0min
21:15 14,8°C 80,5% 11,5°C 1008,1hPa 14,8°C 0,0km/h (0Bft) 0,0km/h 0,0l/m² 0,000klx 0,0min
21:10 14,9°C 80,4% 11,5°C 1008,2hPa 14,9°C 0,0km/h (0Bft) 0,0km/h 0,0l/m² 0,000klx 0,0min
21:05 14,8°C 80,7% 11,5°C 1008,2hPa 14,8°C 0,0km/h (0Bft) 0,0km/h 0,0l/m² 0,000klx 0,0min
21:00 14,9°C 80,4% 11,5°C 1008,3hPa 14,9°C 0,0km/h (0Bft) 0,0km/h 0,0l/m² 0,000klx 0,0min
20:55 14,9°C 80,4% 11,5°C 1008,3hPa 14,9°C 0,0km/h (0Bft) 0,0km/h 0,0l/m² 0,000klx 0,0min
20:50 14,8°C 80,4% 11,5°C 1008,4hPa 14,8°C 0,0km/h (0Bft) 0,0km/h 0,0l/m² 0,000klx 0,0min
20:45 14,9°C 80,2% 11,5°C 1008,5hPa 14,9°C 0,0km/h (0Bft) 0,0km/h 0,0l/m² 0,000klx 0,0min
20:40 14,9°C 80,1% 11,5°C 1008,5hPa 14,9°C 0,0km/h (0Bft) 0,0km/h 0,0l/m² 0,000klx 0,0min
20:35 15,0°C 79,7% 11,5°C 1008,6hPa 15,0°C 0,0km/h (0Bft) 0,0km/h 0,0l/m² 0,000klx 0,0min
20:30 15,0°C 79,6% 11,5°C 1008,7hPa 15,0°C 0,0km/h (0Bft) 0,0km/h 0,0l/m² 0,000klx 0,0min
20:25 15,1°C 79,4% 11,5°C 1008,7hPa 15,1°C 0,0km/h (0Bft) 0,0km/h 0,0l/m² 0,000klx 0,0min
20:20 15,1°C 79,4% 11,5°C 1008,7hPa 15,1°C 0,0km/h (0Bft) 0,0km/h 0,0l/m² 0,000klx 0,0min
20:15 15,1°C 79,5% 11,6°C 1008,8hPa 15,1°C 0,0km/h (0Bft) 0,0km/h 0,0l/m² 0,000klx 0,0min
20:10 15,0°C 79,8% 11,6°C 1008,9hPa 15,0°C 0,0km/h (0Bft) 0,0km/h 0,0l/m² 0,000klx 0,0min
20:05 15,0°C 79,9% 11,6°C 1008,9hPa 15,0°C 0,0km/h (0Bft) 0,0km/h 0,0l/m² 0,000klx 0,0min
20:00 15,1°C 79,6% 11,6°C 1009,0hPa 15,1°C 0,0km/h (0Bft) 0,0km/h 0,0l/m² 0,000klx 0,0min
19:55 15,1°C 79,9% 11,6°C 1009,1hPa 15,1°C 0,0km/h (0Bft) 0,0km/h 0,0l/m² 0,000klx 0,0min
19:50 15,1°C 79,9% 11,6°C 1009,1hPa 15,1°C 0,0km/h (0Bft) 0,0km/h 0,0l/m² 0,000klx 0,0min
19:45 15,1°C 79,4% 11,6°C 1009,2hPa 15,1°C 0,0km/h (0Bft) 0,0km/h 0,0l/m² 0,000klx 0,0min
19:40 15,2°C 79,0% 11,6°C 1009,2hPa 15,2°C 0,0km/h (0Bft) 0,0km/h 0,0l/m² 0,000klx 0,0min
19:35 15,3°C 78,7% 11,6°C 1009,3hPa 15,3°C 0,0km/h (0Bft) 0,0km/h 0,0l/m² 0,000klx 0,0min
19:30 15,3°C 78,2% 11,6°C 1009,3hPa 15,3°C 0,0km/h (0Bft) 0,0km/h 0,0l/m² 0,000klx 0,0min
19:25 15,4°C 78,0% 11,5°C 1009,3hPa 15,4°C 0,0km/h (0Bft) 0,0km/h 0,0l/m² 0,000klx 0,0min
19:20 15,3°C 78,4% 11,6°C 1009,3hPa 15,3°C 0,0km/h (0Bft) 0,0km/h 0,0l/m² 0,000klx 0,0min
19:15 15,2°C 78,9% 11,6°C 1009,3hPa 15,2°C 0,0km/h (0Bft) 0,0km/h 0,0l/m² 0,000klx 0,0min
19:10 15,2°C 78,8% 11,6°C 1009,4hPa 15,2°C 0,0km/h (0Bft) 0,0km/h 0,0l/m² 0,000klx 0,0min
19:05 15,2°C 79,2% 11,6°C 1009,5hPa 15,2°C 0,0km/h (0Bft) 0,0km/h 0,0l/m² 0,001klx 0,0min
19:00 15,2°C 79,3% 11,6°C 1009,6hPa 15,2°C 0,0km/h (0Bft) 0,0km/h 0,0l/m² 0,001klx 0,0min
18:55 15,2°C 79,2% 11,6°C 1009,5hPa 15,2°C 0,0km/h (0Bft) 0,0km/h 0,0l/m² 0,002klx 0,0min
18:50 15,3°C 78,9% 11,6°C 1009,6hPa 15,3°C 0,0km/h (0Bft) 0,0km/h 0,0l/m² 0,004klx 0,0min
18:45 15,3°C 78,7% 11,6°C 1009,6hPa 15,3°C 0,0km/h (0Bft) 0,0km/h 0,0l/m² 0,010klx 0,0min
18:40 15,2°C 78,7% 11,5°C 1009,6hPa 15,2°C 0,0km/h (0Bft) 0,0km/h 0,0l/m² 0,029klx 0,0min
18:35 15,3°C 78,5% 11,5°C 1009,7hPa 15,3°C 0,0km/h (0Bft) 0,0km/h 0,0l/m² 0,070klx 0,0min
18:30 15,3°C 78,3% 11,6°C 1009,7hPa 15,3°C 0,0km/h (0Bft) 0,0km/h 0,0l/m² 0,137klx 0,0min
18:25 15,5°C 77,6% 11,6°C 1009,7hPa 15,5°C 0,0km/h (0Bft) 0,0km/h 0,0l/m² 0,152klx 0,0min
18:20 15,5°C 77,8% 11,6°C 1009,8hPa 15,5°C 0,0km/h (0Bft) 0,0km/h 0,0l/m² 0,135klx 0,0min
18:15 15,5°C 77,6% 11,6°C 1009,8hPa 15,5°C 0,0km/h (0Bft) 0,0km/h 0,0l/m² 0,216klx 0,0min
18:10 15,6°C 77,3% 11,6°C 1009,8hPa 15,6°C 0,0km/h (0Bft) 0,0km/h 0,0l/m² 0,362klx 0,0min
18:05 15,6°C 77,3% 11,6°C 1009,8hPa 15,6°C 0,0km/h (0Bft) 0,0km/h 0,0l/m² 0,548klx 0,0min
18:00 15,6°C 77,5% 11,6°C 1009,9hPa 15,6°C 0,0km/h (0Bft) 0,0km/h 0,0l/m² 0,504klx 0,0min
17:55 15,6°C 77,3% 11,6°C 1009,9hPa 15,6°C 0,0km/h (0Bft) 0,0km/h 0,0l/m² 0,504klx 0,0min
17:50 15,6°C 77,2% 11,6°C 1009,9hPa 15,6°C 0,0km/h (0Bft) 0,0km/h 0,0l/m² 0,526klx 0,0min
17:45 15,6°C 77,5% 11,6°C 1010,0hPa 15,6°C 0,0km/h (0Bft) 0,0km/h 0,0l/m² 0,594klx 0,0min
17:40 15,5°C 78,0% 11,7°C 1010,0hPa 15,5°C 0,0km/h (0Bft) 0,0km/h 0,0l/m² 0,787klx 0,0min
17:35 15,4°C 79,1% 11,7°C 1010,0hPa 15,4°C 0,0km/h (0Bft) 0,0km/h 0,0l/m² 1,072klx 0,0min
17:30 15,3°C 79,8% 11,8°C 1010,1hPa 15,3°C 0,0km/h (0Bft) 0,0km/h 0,0l/m² 1,696klx 0,0min
17:25 15,1°C 80,7% 11,8°C 1010,1hPa 15,1°C 0,0km/h (0Bft) 0,0km/h 0,0l/m² 2,042klx 0,0min
17:20 15,0°C 81,6% 11,9°C 1010,1hPa 15,0°C 0,0km/h (0Bft) 0,0km/h 0,0l/m² 2,039klx 0,0min
17:15 15,0°C 81,7% 11,9°C 1010,2hPa 15,0°C 0,0km/h (0Bft) 0,0km/h 0,0l/m² 1,727klx 0,0min
17:10 15,0°C 81,9% 11,9°C 1010,3hPa 15,0°C 0,0km/h (0Bft) 0,0km/h 0,0l/m² 1,448klx 0,0min
17:05 15,1°C 81,3% 11,9°C 1010,4hPa 15,1°C 0,0km/h (0Bft) 0,0km/h 0,0l/m² 1,573klx 0,0min
17:00 15,2°C 80,2% 11,8°C 1010,4hPa 15,2°C 0,0km/h (0Bft) 0,0km/h 0,0l/m² 1,955klx 0,0min
16:55 15,3°C 79,4% 11,8°C 1010,4hPa 15,3°C 0,0km/h (0Bft) 0,0km/h 0,0l/m² 2,886klx 0,0min
16:50 15,6°C 77,1% 11,6°C 1010,4hPa 15,6°C 0,0km/h (0Bft) 0,0km/h 0,0l/m² 3,654klx 0,0min
16:45 15,7°C 75,5% 11,4°C 1010,4hPa 15,7°C 0,0km/h (0Bft) 0,0km/h 0,0l/m² 2,755klx 0,0min
16:40 15,8°C 74,9% 11,3°C 1010,5hPa 15,8°C 0,0km/h (0Bft) 0,0km/h 0,0l/m² 2,003klx 0,0min
16:35 15,7°C 75,4% 11,3°C 1010,5hPa 15,7°C 0,0km/h (0Bft) 0,0km/h 0,0l/m² 2,259klx 0,0min
16:30 15,7°C 75,3% 11,4°C 1010,6hPa 15,7°C 0,0km/h (0Bft) 0,0km/h 0,0l/m² 3,158klx 0,0min
16:25 15,7°C 75,3% 11,3°C 1010,6hPa 15,7°C 0,0km/h (0Bft) 0,0km/h 0,0l/m² 5,473klx 0,0min
16:20 15,6°C 76,1% 11,4°C 1010,7hPa 15,6°C 0,0km/h (0Bft) 0,0km/h 0,0l/m² 4,330klx 0,0min
16:15 15,5°C 76,3% 11,4°C 1010,8hPa 15,5°C 0,0km/h (0Bft) 0,0km/h 0,0l/m² 4,190klx 0,0min
16:10 15,5°C 76,5% 11,4°C 1010,8hPa 15,5°C 0,0km/h (0Bft) 0,0km/h 0,0l/m² 4,831klx 0,0min
16:05 15,5°C 75,9% 11,3°C 1010,8hPa 15,5°C 0,0km/h (0Bft) 0,0km/h 0,0l/m² 4,308klx 0,0min
16:00 15,7°C 75,2% 11,3°C 1010,9hPa 15,7°C 0,0km/h (0Bft) 0,0km/h 0,0l/m² 4,076klx 0,0min
15:55 15,9°C 73,1% 11,1°C 1010,8hPa 15,9°C 0,0km/h (0Bft) 0,0km/h 0,0l/m² 5,169klx 0,0min
15:50 16,0°C 72,5% 11,0°C 1010,7hPa 16,0°C 0,0km/h (0Bft) 0,0km/h 0,0l/m² 6,230klx 0,0min
15:45 16,1°C 72,2% 11,1°C 1010,7hPa 16,1°C 0,0km/h (0Bft) 0,0km/h 0,0l/m² 7,449klx 0,0min
15:40 16,1°C 72,7% 11,2°C 1010,8hPa 16,1°C 0,0km/h (0Bft) 0,0km/h 0,0l/m² 8,605klx 0,0min
15:35 16,1°C 72,7% 11,2°C 1010,8hPa 16,1°C 0,0km/h (0Bft) 0,0km/h 0,0l/m² 10,074klx 0,0min
15:30 16,2°C 72,5% 11,2°C 1010,8hPa 16,2°C 0,0km/h (0Bft) 0,0km/h 0,0l/m² 12,684klx 0,0min
15:25 16,2°C 71,9% 11,1°C 1010,9hPa 16,2°C 0,0km/h (0Bft) 0,0km/h 0,0l/m² 17,112klx 0,0min
15:20 16,0°C 72,4% 11,1°C 1011,0hPa 16,0°C 0,0km/h (0Bft) 0,0km/h 0,0l/m² 16,488klx 0,0min
15:15 15,9°C 72,4% 11,0°C 1011,1hPa 15,9°C 0,0km/h (0Bft) 0,0km/h 0,0l/m² 14,839klx 0,0min
15:10 15,8°C 73,4% 11,0°C 1011,1hPa 15,8°C 0,0km/h (0Bft) 0,0km/h 0,0l/m² 14,117klx 0,0min
15:05 15,8°C 73,8% 11,1°C 1011,2hPa 15,8°C 0,0km/h (0Bft) 0,0km/h 0,0l/m² 12,613klx 0,0min
15:00 15,7°C 72,9% 10,9°C 1011,2hPa 15,7°C 0,0km/h (0Bft) 0,0km/h 0,0l/m² 11,885klx 0,0min
14:55 15,7°C 73,5% 11,0°C 1011,3hPa 15,7°C 0,0km/h (0Bft) 0,0km/h 0,0l/m² 11,856klx 0,0min
14:50 15,7°C 72,1% 10,7°C 1011,3hPa 15,7°C 0,0km/h (0Bft) 0,0km/h 0,0l/m² 11,527klx 0,0min
14:45 15,8°C 72,3% 10,8°C 1011,4hPa 15,8°C 0,0km/h (0Bft) 0,0km/h 0,0l/m² 13,126klx 0,0min
14:40 15,8°C 72,3% 10,8°C 1011,5hPa 15,8°C 0,0km/h (0Bft) 0,0km/h 0,0l/m² 13,045klx 0,0min
14:35 15,8°C 72,3% 10,8°C 1011,5hPa 15,8°C 0,0km/h (0Bft) 0,0km/h 0,0l/m² 16,257klx 0,0min
14:30 15,8°C 72,3% 10,9°C 1011,5hPa 15,8°C 0,0km/h (0Bft) 0,0km/h 0,0l/m² 15,648klx 0,0min
14:25 15,9°C 71,8% 10,8°C 1011,5hPa 15,9°C 0,0km/h (0Bft) 0,0km/h 0,0l/m² 18,787klx 0,0min
14:20 16,0°C 72,0% 10,9°C 1011,5hPa 16,0°C 0,0km/h (0Bft) 0,0km/h 0,0l/m² 20,594klx 0,0min
14:15 16,0°C 71,8% 10,9°C 1011,6hPa 16,0°C 0,0km/h (0Bft) 0,0km/h 0,0l/m² 27,651klx 0,0min
14:10 15,5°C 73,3% 10,8°C 1011,7hPa 15,5°C 0,0km/h (0Bft) 0,0km/h 0,0l/m² 22,141klx 0,0min
14:05 15,5°C 73,6% 10,8°C 1011,7hPa 15,5°C 0,0km/h (0Bft) 0,0km/h 0,0l/m² 12,278klx 0,0min
14:00 15,6°C 72,5% 10,7°C 1011,7hPa 15,6°C 0,0km/h (0Bft) 0,0km/h 0,0l/m² 13,893klx 0,0min
13:55 15,7°C 72,3% 10,7°C 1011,7hPa 15,7°C 0,0km/h (0Bft) 0,0km/h 0,0l/m² 20,199klx 0,0min
13:50 15,6°C 73,3% 10,9°C 1011,7hPa 15,6°C 0,0km/h (0Bft) 0,0km/h 0,0l/m² 21,218klx 0,0min
13:45 15,8°C 73,5% 11,1°C 1011,7hPa 15,8°C 0,0km/h (0Bft) 0,0km/h 0,0l/m² 16,643klx 0,0min
13:40 15,9°C 74,4% 11,3°C 1011,7hPa 15,9°C 0,0km/h (0Bft) 0,0km/h 0,0l/m² 21,943klx 0,0min
13:35 15,8°C 75,2% 11,4°C 1011,6hPa 15,8°C 0,0km/h (0Bft) 0,0km/h 0,0l/m² 24,382klx 0,0min
13:30 15,5°C 75,9% 11,3°C 1011,7hPa 15,5°C 0,0km/h (0Bft) 0,0km/h 0,0l/m² 21,233klx 0,0min
13:25 15,4°C 76,6% 11,3°C 1011,8hPa 15,4°C 0,0km/h (0Bft) 0,0km/h 0,0l/m² 14,704klx 0,0min
13:20 15,3°C 77,1% 11,3°C 1011,9hPa 15,3°C 0,0km/h (0Bft) 0,0km/h 0,0l/m² 10,513klx 0,0min
13:15 15,2°C 77,7% 11,3°C 1011,9hPa 15,2°C 0,0km/h (0Bft) 0,0km/h 0,0l/m² 7,696klx 0,0min
13:10 15,2°C 78,1% 11,4°C 1011,9hPa 15,2°C 0,0km/h (0Bft) 0,0km/h 0,0l/m² 7,260klx 0,0min
13:05 15,3°C 77,5% 11,4°C 1011,9hPa 15,3°C 0,0km/h (0Bft) 0,0km/h 0,0l/m² 9,091klx 0,0min
13:00 15,3°C 77,7% 11,4°C 1012,0hPa 15,3°C 0,0km/h (0Bft) 0,0km/h 0,0l/m² 13,129klx 0,0min
12:55 15,1°C 79,4% 11,6°C 1012,0hPa 15,1°C 0,0km/h (0Bft) 0,0km/h 0,0l/m² 13,295klx 0,0min
12:50 15,0°C 79,7% 11,6°C 1012,1hPa 15,0°C 0,0km/h (0Bft) 0,0km/h 0,0l/m² 10,565klx 0,0min
12:45 15,0°C 79,7% 11,5°C 1012,1hPa 15,0°C 0,0km/h (0Bft) 0,0km/h 0,0l/m² 10,412klx 0,0min
12:40 15,0°C 80,1% 11,6°C 1012,2hPa 15,0°C 0,0km/h (0Bft) 0,0km/h 0,0l/m² 10,905klx 0,0min
12:35 14,9°C 80,4% 11,6°C 1012,2hPa 14,9°C 0,0km/h (0Bft) 0,0km/h 0,0l/m² 13,410klx 0,0min
12:30 14,9°C 81,3% 11,7°C 1012,2hPa 14,9°C 0,0km/h (0Bft) 0,0km/h 0,0l/m² 16,743klx 0,0min
12:25 14,8°C 81,0% 11,6°C 1012,2hPa 14,8°C 0,0km/h (0Bft) 0,0km/h 0,0l/m² 14,223klx 0,0min
12:20 15,1°C 80,7% 11,8°C 1012,2hPa 15,1°C 0,0km/h (0Bft) 0,0km/h 0,0l/m² 10,177klx 0,0min
12:15 15,5°C 78,0% 11,6°C 1012,1hPa 15,5°C 0,0km/h (0Bft) 0,0km/h 0,0l/m² 9,957klx 0,0min
12:10 16,0°C 76,1% 11,8°C 1012,1hPa 16,0°C 0,0km/h (0Bft) 0,0km/h 0,0l/m² 16,666klx 0,0min
12:05 16,5°C 75,2% 12,1°C 1012,0hPa 16,5°C 0,0km/h (0Bft) 0,0km/h 0,0l/m² 32,065klx 0,0min
12:00 16,2°C 75,8% 11,9°C 1012,0hPa 16,2°C 0,0km/h (0Bft) 0,0km/h 0,0l/m² 34,371klx 0,0min
11:55 16,2°C 75,9% 11,9°C 1011,9hPa 16,2°C 0,0km/h (0Bft) 0,0km/h 0,0l/m² 32,667klx 0,0min
11:50 15,6°C 78,2% 11,8°C 1011,9hPa 15,6°C 0,0km/h (0Bft) 0,0km/h 0,0l/m² 27,223klx 0,0min
11:45 15,5°C 78,6% 11,8°C 1011,9hPa 15,5°C 0,0km/h (0Bft) 0,0km/h 0,0l/m² 20,125klx 0,0min
11:40 15,3°C 78,9% 11,6°C 1011,9hPa 15,3°C 0,0km/h (0Bft) 0,0km/h 0,0l/m² 18,735klx 0,0min
11:35 15,3°C 79,2% 11,7°C 1012,0hPa 15,3°C 0,0km/h (0Bft) 0,0km/h 0,0l/m² 14,062klx 0,0min
11:30 15,3°C 79,1% 11,6°C 1012,0hPa 15,3°C 0,0km/h (0Bft) 0,0km/h 0,0l/m² 16,200klx 0,0min
11:25 15,1°C 79,4% 11,6°C 1012,0hPa 15,1°C 0,0km/h (0Bft) 0,0km/h 0,0l/m² 18,086klx 0,0min
11:20 15,0°C 80,7% 11,7°C 1012,0hPa 15,0°C 0,0km/h (0Bft) 0,0km/h 0,0l/m² 17,981klx 0,0min
11:15 14,9°C 81,7% 11,8°C 1012,0hPa 14,9°C 0,0km/h (0Bft) 0,0km/h 0,0l/m² 13,805klx 0,0min
11:10 14,8°C 81,8% 11,7°C 1011,9hPa 14,8°C 0,0km/h (0Bft) 0,0km/h 0,0l/m² 15,545klx 0,0min
11:05 14,8°C 81,7% 11,7°C 1011,9hPa 14,8°C 0,0km/h (0Bft) 0,0km/h 0,0l/m² 13,941klx 0,0min
11:00 14,8°C 82,4% 11,8°C 1011,9hPa 14,8°C 0,0km/h (0Bft) 0,0km/h 0,0l/m² 19,687klx 0,0min
10:55 14,5°C 84,2% 11,9°C 1011,9hPa 14,5°C 0,0km/h (0Bft) 0,0km/h 0,0l/m² 22,607klx 0,0min
10:50 14,1°C 85,1% 11,7°C 1012,0hPa 14,1°C 0,0km/h (0Bft) 0,0km/h 0,0l/m² 16,750klx 0,0min
10:45 13,9°C 85,6% 11,5°C 1012,1hPa 13,9°C 0,0km/h (0Bft) 0,0km/h 0,0l/m² 13,451klx 0,0min
10:40 13,9°C 85,5% 11,5°C 1012,2hPa 13,9°C 0,0km/h (0Bft) 0,0km/h 0,0l/m² 11,840klx 0,0min
10:35 13,9°C 85,1% 11,5°C 1012,2hPa 13,9°C 0,0km/h (0Bft) 0,0km/h 0,0l/m² 13,423klx 0,0min
10:30 14,0°C 84,3% 11,4°C 1012,2hPa 14,0°C 0,0km/h (0Bft) 0,0km/h 0,0l/m² 12,729klx 0,0min
10:25 14,0°C 84,6% 11,5°C 1012,2hPa 14,0°C 0,0km/h (0Bft) 0,0km/h 0,0l/m² 10,832klx 0,0min
10:20 14,0°C 84,1% 11,3°C 1012,2hPa 14,0°C 0,0km/h (0Bft) 0,0km/h 0,0l/m² 9,544klx 0,0min
10:15 14,0°C 84,5% 11,4°C 1012,2hPa 14,0°C 0,0km/h (0Bft) 0,0km/h 0,0l/m² 10,403klx 0,0min
10:10 13,8°C 85,0% 11,3°C 1012,2hPa 13,8°C 0,0km/h (0Bft) 0,0km/h 0,0l/m² 10,308klx 0,0min
10:05 13,8°C 85,5% 11,4°C 1012,3hPa 13,8°C 0,0km/h (0Bft) 0,0km/h 0,0l/m² 8,362klx 0,0min
10:00 13,8°C 85,3% 11,4°C 1012,2hPa 13,8°C 0,0km/h (0Bft) 0,0km/h 0,0l/m² 6,987klx 0,0min
09:55 13,7°C 85,5% 11,3°C 1012,1hPa 13,7°C 0,0km/h (0Bft) 0,0km/h 0,0l/m² 6,110klx 0,0min
09:50 13,8°C 85,4% 11,4°C 1012,0hPa 13,8°C 0,0km/h (0Bft) 0,0km/h 0,0l/m² 7,345klx 0,0min
09:45 13,7°C 85,8% 11,3°C 1012,0hPa 13,7°C 0,0km/h (0Bft) 0,0km/h 0,0l/m² 7,258klx 0,0min
09:40 13,6°C 86,0% 11,3°C 1012,0hPa 13,6°C 0,0km/h (0Bft) 0,0km/h 0,0l/m² 6,944klx 0,0min
09:35 13,5°C 86,5% 11,3°C 1012,0hPa 13,5°C 0,0km/h (0Bft) 0,0km/h 0,0l/m² 6,435klx 0,0min
09:30 13,5°C 87,1% 11,4°C 1012,0hPa 13,5°C 0,0km/h (0Bft) 0,0km/h 0,0l/m² 5,822klx 0,0min
09:25 13,4°C 87,5% 11,4°C 1012,0hPa 13,4°C 0,0km/h (0Bft) 0,0km/h 0,0l/m² 5,658klx 0,0min
09:20 13,4°C 87,8% 11,4°C 1012,0hPa 13,4°C 0,0km/h (0Bft) 0,0km/h 0,0l/m² 6,860klx 0,0min
09:15 13,2°C 88,2% 11,3°C 1011,9hPa 13,2°C 0,0km/h (0Bft) 0,0km/h 0,0l/m² 6,036klx 0,0min
09:10 13,2°C 88,8% 11,3°C 1011,9hPa 13,2°C 0,0km/h (0Bft) 0,0km/h 0,0l/m² 4,778klx 0,0min
09:05 13,2°C 88,6% 11,3°C 1011,9hPa 13,2°C 0,0km/h (0Bft) 0,0km/h 0,0l/m² 4,130klx 0,0min
09:00 13,2°C 88,5% 11,3°C 1011,9hPa 13,2°C 0,0km/h (0Bft) 0,0km/h 0,0l/m² 3,383klx 0,0min
08:55 13,2°C 88,6% 11,3°C 1011,9hPa 13,2°C 0,0km/h (0Bft) 0,0km/h 0,0l/m² 2,874klx 0,0min
08:50 13,2°C 89,0% 11,4°C 1011,9hPa 13,2°C 0,0km/h (0Bft) 0,0km/h 0,0l/m² 2,530klx 0,0min
08:45 13,2°C 88,6% 11,4°C 1011,9hPa 13,2°C 0,0km/h (0Bft) 0,0km/h 0,0l/m² 2,219klx 0,0min
08:40 13,2°C 88,5% 11,4°C 1011,9hPa 13,2°C 0,0km/h (0Bft) 0,0km/h 0,0l/m² 1,406klx 0,0min
08:35 13,3°C 88,4% 11,4°C 1011,9hPa 13,3°C 0,0km/h (0Bft) 0,0km/h 0,0l/m² 1,130klx 0,0min
08:30 13,3°C 88,5% 11,4°C 1011,9hPa 13,3°C 0,0km/h (0Bft) 0,0km/h 0,0l/m² 0,857klx 0,0min
08:25 13,2°C 88,8% 11,4°C 1011,9hPa 13,2°C 0,0km/h (0Bft) 0,0km/h 0,0l/m² 0,660klx 0,0min
08:20 13,2°C 89,0% 11,4°C 1011,9hPa 13,2°C 0,0km/h (0Bft) 0,0km/h 0,0l/m² 0,456klx 0,0min
08:15 13,1°C 89,2% 11,4°C 1011,9hPa 13,1°C 0,0km/h (0Bft) 0,0km/h 0,0l/m² 0,353klx 0,0min
08:10 13,1°C 89,4% 11,4°C 1011,7hPa 13,1°C 0,0km/h (0Bft) 0,0km/h 0,0l/m² 0,270klx 0,0min
08:05 13,1°C 89,4% 11,4°C 1011,7hPa 13,1°C 0,0km/h (0Bft) 0,0km/h 0,0l/m² 0,159klx 0,0min
08:00 13,1°C 89,4% 11,4°C 1011,7hPa 13,1°C 0,0km/h (0Bft) 0,0km/h 0,0l/m² 0,079klx 0,0min
07:55 13,2°C 89,3% 11,5°C 1011,7hPa 13,2°C 0,0km/h (0Bft) 0,0km/h 0,0l/m² 0,034klx 0,0min
07:50 13,2°C 89,4% 11,5°C 1011,8hPa 13,2°C 0,0km/h (0Bft) 0,0km/h 0,0l/m² 0,012klx 0,0min
07:45 13,2°C 89,5% 11,5°C 1011,8hPa 13,2°C 0,0km/h (0Bft) 0,0km/h 0,0l/m² 0,005klx 0,0min
07:40 13,2°C 89,6% 11,5°C 1011,8hPa 13,2°C 0,0km/h (0Bft) 0,0km/h 0,0l/m² 0,002klx 0,0min
07:35 13,2°C 89,4% 11,5°C 1011,9hPa 13,2°C 0,0km/h (0Bft) 0,0km/h 0,0l/m² 0,001klx 0,0min
07:30 13,2°C 89,6% 11,5°C 1011,9hPa 13,2°C 0,0km/h (0Bft) 0,0km/h 0,0l/m² 0,001klx 0,0min
07:25 13,1°C 89,9% 11,5°C 1011,9hPa 13,1°C 0,0km/h (0Bft) 0,0km/h 0,0l/m² 0,000klx 0,0min
07:20 13,2°C 89,7% 11,5°C 1011,9hPa 13,2°C 0,0km/h (0Bft) 0,0km/h 0,0l/m² 0,000klx 0,0min
07:15 13,2°C 89,6% 11,5°C 1011,8hPa 13,2°C 0,0km/h (0Bft) 0,0km/h 0,0l/m² 0,000klx 0,0min
07:10 13,2°C 89,6% 11,5°C 1011,9hPa 13,2°C 0,0km/h (0Bft) 0,0km/h 0,0l/m² 0,000klx 0,0min
07:05 13,2°C 89,8% 11,6°C 1011,9hPa 13,2°C 0,0km/h (0Bft) 0,0km/h 0,0l/m² 0,000klx 0,0min
07:00 13,2°C 89,7% 11,6°C 1011,8hPa 13,2°C 0,0km/h (0Bft) 0,0km/h 0,0l/m² 0,000klx 0,0min
06:55 13,2°C 89,9% 11,6°C 1011,8hPa 13,2°C 0,0km/h (0Bft) 0,0km/h 0,0l/m² 0,000klx 0,0min
06:50 13,2°C 90,0% 11,6°C 1011,9hPa 13,2°C 0,0km/h (0Bft) 0,0km/h 0,0l/m² 0,000klx 0,0min
06:45 13,3°C 90,1% 11,7°C 1011,9hPa 13,3°C 0,0km/h (0Bft) 0,0km/h 0,0l/m² 0,000klx 0,0min
06:40 13,2°C 90,2% 11,7°C 1012,0hPa 13,2°C 0,0km/h (0Bft) 0,0km/h 0,0l/m² 0,000klx 0,0min
06:35 13,2°C 90,3% 11,7°C 1011,9hPa 13,2°C 0,0km/h (0Bft) 0,0km/h 0,0l/m² 0,000klx 0,0min
06:30 13,2°C 90,5% 11,7°C 1011,9hPa 13,2°C 0,0km/h (0Bft) 0,0km/h 0,0l/m² 0,000klx 0,0min
06:25 13,2°C 90,5% 11,7°C 1011,8hPa 13,2°C 0,0km/h (0Bft) 0,0km/h 0,0l/m² 0,000klx 0,0min
06:20 13,1°C 90,7% 11,6°C 1011,8hPa 13,1°C 0,0km/h (0Bft) 0,0km/h 0,0l/m² 0,000klx 0,0min
06:15 13,1°C 90,7% 11,6°C 1011,8hPa 13,1°C 0,0km/h (0Bft) 0,0km/h 0,0l/m² 0,000klx 0,0min
06:10 13,0°C 90,7% 11,5°C 1011,8hPa 13,0°C 0,0km/h (0Bft) 0,0km/h 0,0l/m² 0,000klx 0,0min
06:05 13,0°C 90,7% 11,5°C 1011,8hPa 13,0°C 0,0km/h (0Bft) 0,0km/h 0,0l/m² 0,000klx 0,0min
06:00 13,0°C 90,6% 11,4°C 1011,8hPa 13,0°C 0,0km/h (0Bft) 0,0km/h 0,0l/m² 0,000klx 0,0min
05:55 13,0°C 90,2% 11,5°C 1011,7hPa 13,0°C 0,0km/h (0Bft) 0,0km/h 0,0l/m² 0,000klx 0,0min
05:50 13,2°C 90,0% 11,6°C 1011,7hPa 13,2°C 0,0km/h (0Bft) 0,0km/h 0,0l/m² 0,000klx 0,0min
05:45 13,2°C 90,2% 11,6°C 1011,8hPa 13,2°C 0,0km/h (0Bft) 0,0km/h 0,0l/m² 0,000klx 0,0min
05:40 13,1°C 90,4% 11,6°C 1011,7hPa 13,1°C 0,0km/h (0Bft) 0,0km/h 0,0l/m² 0,000klx 0,0min
05:35 13,1°C 90,5% 11,5°C 1011,7hPa 13,1°C 0,0km/h (0Bft) 0,0km/h 0,0l/m² 0,000klx 0,0min
05:30 13,0°C 90,3% 11,5°C 1011,6hPa 13,0°C 0,0km/h (0Bft) 0,0km/h 0,0l/m² 0,000klx 0,0min
05:25 13,2°C 90,2% 11,6°C 1011,6hPa 13,2°C 0,0km/h (0Bft) 0,0km/h 0,0l/m² 0,000klx 0,0min
05:20 13,2°C 90,2% 11,6°C 1011,6hPa 13,2°C 0,0km/h (0Bft) 0,0km/h 0,0l/m² 0,000klx 0,0min
05:15 13,2°C 90,0% 11,6°C 1011,5hPa 13,2°C 0,0km/h (0Bft) 0,0km/h 0,0l/m² 0,000klx 0,0min
05:10 13,3°C 89,9% 11,7°C 1011,5hPa 13,3°C 0,0km/h (0Bft) 0,0km/h 0,0l/m² 0,000klx 0,0min
05:05 13,3°C 90,1% 11,7°C 1011,5hPa 13,3°C 0,0km/h (0Bft) 0,0km/h 0,0l/m² 0,000klx 0,0min
05:00 13,2°C 90,3% 11,7°C 1011,5hPa 13,2°C 0,0km/h (0Bft) 0,0km/h 0,0l/m² 0,000klx 0,0min
04:55 13,2°C 90,3% 11,6°C 1011,6hPa 13,2°C 0,0km/h (0Bft) 0,0km/h 0,0l/m² 0,000klx 0,0min
04:50 13,2°C 90,1% 11,6°C 1011,6hPa 13,2°C 0,0km/h (0Bft) 0,0km/h 0,0l/m² 0,000klx 0,0min
04:45 13,3°C 90,0% 11,7°C 1011,6hPa 13,3°C 0,0km/h (0Bft) 0,0km/h 0,0l/m² 0,000klx 0,0min
04:40 13,4°C 90,0% 11,7°C 1011,7hPa 13,4°C 0,0km/h (0Bft) 0,0km/h 0,0l/m² 0,000klx 0,0min
04:35 13,4°C 89,8% 11,7°C 1011,7hPa 13,4°C 0,0km/h (0Bft) 0,0km/h 0,0l/m² 0,000klx 0,0min
04:30 13,3°C 90,1% 11,7°C 1011,7hPa 13,3°C 0,0km/h (0Bft) 0,0km/h 0,0l/m² 0,000klx 0,0min
04:25 13,2°C 90,2% 11,6°C 1011,6hPa 13,2°C 0,0km/h (0Bft) 0,0km/h 0,0l/m² 0,000klx 0,0min
04:20 13,2°C 90,3% 11,6°C 1011,6hPa 13,2°C 0,0km/h (0Bft) 0,0km/h 0,0l/m² 0,000klx 0,0min
04:15 13,1°C 90,6% 11,6°C 1011,6hPa 13,1°C 0,0km/h (0Bft) 0,0km/h 0,0l/m² 0,000klx 0,0min
04:10 13,0°C 90,9% 11,5°C 1011,8hPa 13,0°C 0,0km/h (0Bft) 0,0km/h 0,0l/m² 0,000klx 0,0min
04:05 12,9°C 91,1% 11,5°C 1011,8hPa 12,9°C 0,0km/h (0Bft) 0,0km/h 0,0l/m² 0,000klx 0,0min
04:00 12,8°C 91,2% 11,4°C 1011,8hPa 12,8°C 0,0km/h (0Bft) 0,0km/h 0,0l/m² 0,000klx 0,0min
03:55 12,8°C 91,3% 11,4°C 1011,9hPa 12,8°C 0,0km/h (0Bft) 0,0km/h 0,0l/m² 0,000klx 0,0min
03:50 12,7°C 91,3% 11,3°C 1011,8hPa 12,7°C 0,0km/h (0Bft) 0,0km/h 0,0l/m² 0,000klx 0,0min
03:45 12,7°C 91,4% 11,3°C 1011,8hPa 12,7°C 0,0km/h (0Bft) 0,0km/h 0,0l/m² 0,000klx 0,0min
03:40 12,6°C 91,3% 11,2°C 1011,9hPa 12,6°C 0,0km/h (0Bft) 0,0km/h 0,0l/m² 0,000klx 0,0min
03:35 12,8°C 91,3% 11,4°C 1011,9hPa 12,8°C 0,0km/h (0Bft) 0,0km/h 0,0l/m² 0,000klx 0,0min
03:30 12,8°C 91,3% 11,4°C 1011,9hPa 12,8°C 0,0km/h (0Bft) 0,0km/h 0,0l/m² 0,000klx 0,0min
03:25 12,8°C 91,2% 11,4°C 1011,9hPa 12,8°C 0,0km/h (0Bft) 0,0km/h 0,0l/m² 0,000klx 0,0min
03:20 12,8°C 91,2% 11,4°C 1011,9hPa 12,8°C 0,0km/h (0Bft) 0,0km/h 0,0l/m² 0,000klx 0,0min
03:15 12,8°C 91,2% 11,4°C 1011,8hPa 12,8°C 0,0km/h (0Bft) 0,0km/h 0,0l/m² 0,000klx 0,0min
03:10 12,9°C 91,1% 11,5°C 1011,8hPa 12,9°C 0,0km/h (0Bft) 0,0km/h 0,0l/m² 0,000klx 0,0min
03:05 12,9°C 91,2% 11,5°C 1011,8hPa 12,9°C 0,0km/h (0Bft) 0,0km/h 0,0l/m² 0,000klx 0,0min
03:00 12,9°C 91,3% 11,6°C 1011,7hPa 12,9°C 0,0km/h (0Bft) 0,0km/h 0,0l/m² 0,000klx 0,0min
02:55 12,9°C 91,2% 11,5°C 1011,7hPa 12,9°C 0,0km/h (0Bft) 0,0km/h 0,0l/m² 0,000klx 0,0min
02:50 12,9°C 91,2% 11,5°C 1011,7hPa 12,9°C 0,0km/h (0Bft) 0,0km/h 0,0l/m² 0,000klx 0,0min
02:45 13,0°C 91,1% 11,6°C 1011,7hPa 13,0°C 0,0km/h (0Bft) 0,0km/h 0,0l/m² 0,000klx 0,0min
02:40 13,1°C 91,1% 11,6°C 1011,6hPa 13,1°C 0,0km/h (0Bft) 0,0km/h 0,0l/m² 0,000klx 0,0min
02:35 13,2°C 91,1% 11,7°C 1011,6hPa 13,2°C 0,0km/h (0Bft) 0,0km/h 0,0l/m² 0,000klx 0,0min
02:30 13,2°C 91,2% 11,8°C 1011,5hPa 13,2°C 0,0km/h (0Bft) 0,0km/h 0,0l/m² 0,000klx 0,0min
02:25 13,2°C 91,1% 11,8°C 1011,6hPa 13,2°C 0,0km/h (0Bft) 0,0km/h 0,0l/m² 0,000klx 0,0min
02:20 13,3°C 91,1% 11,9°C 1011,6hPa 13,3°C 0,0km/h (0Bft) 0,0km/h 0,0l/m² 0,000klx 0,0min
02:15 13,4°C 91,0% 12,0°C 1011,6hPa 13,4°C 0,0km/h (0Bft) 0,0km/h 0,0l/m² 0,000klx 0,0min
02:10 13,5°C 90,9% 12,1°C 1011,6hPa 13,5°C 0,0km/h (0Bft) 0,0km/h 0,0l/m² 0,000klx 0,0min
02:05 13,7°C 90,8% 12,2°C 1011,6hPa 13,7°C 0,0km/h (0Bft) 0,0km/h 0,0l/m² 0,000klx 0,0min
02:00 13,7°C 90,9% 12,3°C 1011,7hPa 13,7°C 0,0km/h (0Bft) 0,0km/h 0,0l/m² 0,000klx 0,0min
01:55 13,7°C 90,9% 12,2°C 1011,7hPa 13,7°C 0,0km/h (0Bft) 0,0km/h 0,0l/m² 0,000klx 0,0min
01:50 13,7°C 90,9% 12,2°C 1011,7hPa 13,7°C 0,0km/h (0Bft) 0,0km/h 0,0l/m² 0,000klx 0,0min
01:45 13,7°C 91,0% 12,2°C 1011,7hPa 13,7°C 0,0km/h (0Bft) 0,0km/h 0,0l/m² 0,000klx 0,0min
01:40 13,7°C 91,1% 12,2°C 1011,6hPa 13,7°C 0,0km/h (0Bft) 0,0km/h 0,0l/m² 0,000klx 0,0min
01:35 13,7°C 91,0% 12,2°C 1011,6hPa 13,7°C 0,0km/h (0Bft) 0,0km/h 0,0l/m² 0,000klx 0,0min
01:30 13,7°C 90,7% 12,2°C 1011,5hPa 13,7°C 0,0km/h (0Bft) 0,0km/h 0,0l/m² 0,000klx 0,0min
01:25 13,9°C 90,6% 12,4°C 1011,6hPa 13,9°C 0,0km/h (0Bft) 0,0km/h 0,0l/m² 0,000klx 0,0min
01:20 14,0°C 90,7% 12,5°C 1011,6hPa 14,0°C 0,0km/h (0Bft) 0,0km/h 0,0l/m² 0,000klx 0,0min
01:15 14,1°C 90,4% 12,5°C 1011,6hPa 14,1°C 0,0km/h (0Bft) 0,0km/h 0,0l/m² 0,000klx 0,0min
01:10 14,1°C 90,2% 12,5°C 1011,6hPa 14,1°C 0,0km/h (0Bft) 0,0km/h 0,0l/m² 0,000klx 0,0min
01:05 14,2°C 89,8% 12,5°C 1011,6hPa 14,2°C 0,0km/h (0Bft) 0,0km/h 0,0l/m² 0,000klx 0,5min
01:00 14,3°C 89,4% 12,6°C 1011,6hPa 14,3°C 0,0km/h (0Bft) 0,0km/h 0,0l/m² 0,000klx 0,8min
00:55 14,3°C 89,2% 12,6°C 1011,5hPa 14,3°C 0,0km/h (0Bft) 0,0km/h 0,0l/m² 0,000klx 5,0min
00:50 14,4°C 89,2% 12,6°C 1011,6hPa 14,4°C 0,0km/h (0Bft) 0,0km/h 0,0l/m² 0,000klx 5,0min
00:45 14,3°C 89,2% 12,6°C 1011,5hPa 14,3°C 0,0km/h (0Bft) 0,0km/h 0,0l/m² 0,000klx 2,1min
00:40 14,3°C 89,6% 12,6°C 1011,5hPa 14,3°C 0,0km/h (0Bft) 0,0km/h 0,0l/m² 0,000klx 0,0min
00:35 14,2°C 89,9% 12,5°C 1011,5hPa 14,2°C 0,0km/h (0Bft) 0,0km/h 0,0l/m² 0,000klx 0,0min
00:30 14,1°C 89,9% 12,5°C 1011,5hPa 14,1°C 0,0km/h (0Bft) 0,0km/h 0,0l/m² 0,000klx 0,0min
00:25 14,1°C 90,2% 12,5°C 1011,5hPa 14,1°C 0,0km/h (0Bft) 0,0km/h 0,0l/m² 0,000klx 0,0min
00:20 14,1°C 90,2% 12,5°C 1011,5hPa 14,1°C 0,0km/h (0Bft) 0,0km/h 0,0l/m² 0,000klx 0,0min
00:15 14,1°C 90,3% 12,5°C 1011,4hPa 14,1°C 0,0km/h (0Bft) 0,0km/h 0,0l/m² 0,000klx 0,0min
00:10 14,1°C 90,6% 12,5°C 1011,5hPa 14,1°C 0,0km/h (0Bft) 0,0km/h 0,0l/m² 0,000klx 0,0min
00:05 14,0°C 90,9% 12,5°C 1011,5hPa 14,0°C 0,0km/h (0Bft) 0,0km/h 0,0l/m² 0,000klx 0,0min
00:00 13,9°C 91,0% 12,5°C 1011,6hPa 13,9°C 0,0km/h (0Bft) 0,0km/h 0,0l/m² 0,000klx 0,0min

Aktuelle Wetterdaten

24.10.2020 22:15 Uhr